sensor_id;sensor_type;location;lat;lon;timestamp;noise_LAeq;noise_LA_min;noise_LA_max;noise_LA01;noise_LA95
71030;Laerm;63723;51.436;5.976;2022-10-26T00:00:04;38.28;36.89;39.76;;
71030;Laerm;63723;51.436;5.976;2022-10-26T00:00:14;41.70;36.98;50.94;;
71030;Laerm;63723;51.436;5.976;2022-10-26T00:00:26;38.01;36.51;39.39;;
71030;Laerm;63723;51.436;5.976;2022-10-26T00:00:36;38.03;36.56;40.03;;
71030;Laerm;63723;51.436;5.976;2022-10-26T00:00:47;37.95;36.51;39.26;;
71030;Laerm;63723;51.436;5.976;2022-10-26T00:01:07;37.94;36.81;39.08;;
71030;Laerm;63723;51.436;5.976;2022-10-26T00:01:17;37.85;36.45;39.08;;
71030;Laerm;63723;51.436;5.976;2022-10-26T00:01:28;37.84;36.01;39.11;;
71030;Laerm;63723;51.436;5.976;2022-10-26T00:01:38;37.83;36.66;38.80;;
71030;Laerm;63723;51.436;5.976;2022-10-26T00:01:48;37.81;36.55;39.14;;
71030;Laerm;63723;51.436;5.976;2022-10-26T00:01:58;37.76;36.34;38.95;;
71030;Laerm;63723;51.436;5.976;2022-10-26T00:02:08;37.77;36.15;39.19;;
71030;Laerm;63723;51.436;5.976;2022-10-26T00:02:22;37.82;36.56;38.95;;
71030;Laerm;63723;51.436;5.976;2022-10-26T00:02:32;37.75;36.48;38.89;;
71030;Laerm;63723;51.436;5.976;2022-10-26T00:02:42;37.74;36.23;39.21;;
71030;Laerm;63723;51.436;5.976;2022-10-26T00:02:53;37.80;36.13;44.08;;
71030;Laerm;63723;51.436;5.976;2022-10-26T00:03:03;37.73;36.31;38.86;;
71030;Laerm;63723;51.436;5.976;2022-10-26T00:03:14;37.73;36.52;38.92;;
71030;Laerm;63723;51.436;5.976;2022-10-26T00:03:24;37.74;36.57;38.95;;
71030;Laerm;63723;51.436;5.976;2022-10-26T00:03:35;37.81;36.82;39.21;;
71030;Laerm;63723;51.436;5.976;2022-10-26T00:03:45;37.72;36.29;38.74;;
71030;Laerm;63723;51.436;5.976;2022-10-26T00:03:55;37.75;36.37;38.89;;
71030;Laerm;63723;51.436;5.976;2022-10-26T00:04:06;37.73;36.45;38.52;;
71030;Laerm;63723;51.436;5.976;2022-10-26T00:04:16;37.81;36.63;39.00;;
71030;Laerm;63723;51.436;5.976;2022-10-26T00:04:26;37.75;36.50;38.85;;
71030;Laerm;63723;51.436;5.976;2022-10-26T00:04:36;37.75;36.56;38.85;;
71030;Laerm;63723;51.436;5.976;2022-10-26T00:04:47;37.74;36.14;39.25;;
71030;Laerm;63723;51.436;5.976;2022-10-26T00:04:57;37.73;36.43;39.12;;
71030;Laerm;63723;51.436;5.976;2022-10-26T00:05:07;37.76;36.50;39.30;;
71030;Laerm;63723;51.436;5.976;2022-10-26T00:05:18;37.73;36.56;39.28;;
71030;Laerm;63723;51.436;5.976;2022-10-26T00:05:31;37.73;36.51;39.05;;
71030;Laerm;63723;51.436;5.976;2022-10-26T00:05:42;37.75;36.70;38.91;;
71030;Laerm;63723;51.436;5.976;2022-10-26T00:05:52;37.76;36.72;39.08;;
71030;Laerm;63723;51.436;5.976;2022-10-26T00:06:03;37.79;36.49;38.88;;
71030;Laerm;63723;51.436;5.976;2022-10-26T00:06:15;37.83;36.41;39.12;;
71030;Laerm;63723;51.436;5.976;2022-10-26T00:06:25;37.72;36.52;39.14;;
71030;Laerm;63723;51.436;5.976;2022-10-26T00:06:38;37.78;36.41;39.03;;
71030;Laerm;63723;51.436;5.976;2022-10-26T00:06:49;37.71;36.53;39.11;;
71030;Laerm;63723;51.436;5.976;2022-10-26T00:06:59;37.69;36.20;38.89;;
71030;Laerm;63723;51.436;5.976;2022-10-26T00:07:09;37.75;36.56;38.76;;
71030;Laerm;63723;51.436;5.976;2022-10-26T00:07:19;37.75;36.38;39.32;;
71030;Laerm;63723;51.436;5.976;2022-10-26T00:07:30;37.88;36.63;39.40;;
71030;Laerm;63723;51.436;5.976;2022-10-26T00:07:40;37.82;36.69;38.95;;
71030;Laerm;63723;51.436;5.976;2022-10-26T00:07:50;37.79;36.50;39.07;;
71030;Laerm;63723;51.436;5.976;2022-10-26T00:08:00;37.72;36.57;39.00;;
71030;Laerm;63723;51.436;5.976;2022-10-26T00:08:11;37.84;36.51;38.99;;
71030;Laerm;63723;51.436;5.976;2022-10-26T00:08:21;37.78;36.63;39.07;;
71030;Laerm;63723;51.436;5.976;2022-10-26T00:08:31;37.80;36.53;38.96;;
71030;Laerm;63723;51.436;5.976;2022-10-26T00:08:42;37.90;36.72;39.43;;
71030;Laerm;63723;51.436;5.976;2022-10-26T00:08:52;37.79;36.61;39.15;;
71030;Laerm;63723;51.436;5.976;2022-10-26T00:09:04;37.82;36.58;39.26;;
71030;Laerm;63723;51.436;5.976;2022-10-26T00:09:14;37.79;36.22;39.09;;
71030;Laerm;63723;51.436;5.976;2022-10-26T00:09:25;37.86;36.66;39.10;;
71030;Laerm;63723;51.436;5.976;2022-10-26T00:09:35;37.86;36.02;39.06;;
71030;Laerm;63723;51.436;5.976;2022-10-26T00:09:45;37.80;36.54;38.92;;
71030;Laerm;63723;51.436;5.976;2022-10-26T00:09:56;37.86;36.65;39.07;;
71030;Laerm;63723;51.436;5.976;2022-10-26T00:10:06;38.08;36.74;39.49;;
71030;Laerm;63723;51.436;5.976;2022-10-26T00:10:16;37.93;36.30;39.66;;
71030;Laerm;63723;51.436;5.976;2022-10-26T00:10:27;37.87;36.50;39.24;;
71030;Laerm;63723;51.436;5.976;2022-10-26T00:10:37;38.07;36.65;39.45;;
71030;Laerm;63723;51.436;5.976;2022-10-26T00:10:48;38.05;36.46;39.29;;
71030;Laerm;63723;51.436;5.976;2022-10-26T00:10:58;38.15;36.80;39.75;;
71030;Laerm;63723;51.436;5.976;2022-10-26T00:11:08;38.18;36.46;40.45;;
71030;Laerm;63723;51.436;5.976;2022-10-26T00:11:19;38.20;36.35;41.30;;
71030;Laerm;63723;51.436;5.976;2022-10-26T00:11:30;38.23;36.57;41.59;;
71030;Laerm;63723;51.436;5.976;2022-10-26T00:11:40;38.44;36.71;46.32;;
71030;Laerm;63723;51.436;5.976;2022-10-26T00:11:51;38.24;36.95;44.54;;
71030;Laerm;63723;51.436;5.976;2022-10-26T00:12:02;38.20;36.66;39.67;;
71030;Laerm;63723;51.436;5.976;2022-10-26T00:12:12;38.09;36.51;39.48;;
71030;Laerm;63723;51.436;5.976;2022-10-26T00:12:23;38.01;36.88;39.55;;
71030;Laerm;63723;51.436;5.976;2022-10-26T00:12:33;38.14;36.59;39.72;;
71030;Laerm;63723;51.436;5.976;2022-10-26T00:12:43;38.78;36.96;42.21;;
71030;Laerm;63723;51.436;5.976;2022-10-26T00:12:56;39.56;37.18;42.51;;
71030;Laerm;63723;51.436;5.976;2022-10-26T00:13:08;39.73;37.28;42.68;;
71030;Laerm;63723;51.436;5.976;2022-10-26T00:13:19;39.35;37.60;41.64;;
71030;Laerm;63723;51.436;5.976;2022-10-26T00:13:29;38.93;37.17;40.73;;
71030;Laerm;63723;51.436;5.976;2022-10-26T00:13:40;39.04;37.62;40.90;;
71030;Laerm;63723;51.436;5.976;2022-10-26T00:13:50;39.28;37.33;49.16;;
71030;Laerm;63723;51.436;5.976;2022-10-26T00:14:03;38.62;36.97;40.26;;
71030;Laerm;63723;51.436;5.976;2022-10-26T00:14:13;38.18;36.78;39.72;;
71030;Laerm;63723;51.436;5.976;2022-10-26T00:14:24;38.10;36.97;39.10;;
71030;Laerm;63723;51.436;5.976;2022-10-26T00:14:34;38.06;36.74;39.53;;
71030;Laerm;63723;51.436;5.976;2022-10-26T00:14:44;38.09;36.98;39.18;;
71030;Laerm;63723;51.436;5.976;2022-10-26T00:14:54;38.03;36.64;39.25;;
71030;Laerm;63723;51.436;5.976;2022-10-26T00:15:05;38.03;36.81;39.01;;
71030;Laerm;63723;51.436;5.976;2022-10-26T00:15:16;38.02;36.61;39.27;;
71030;Laerm;63723;51.436;5.976;2022-10-26T00:15:27;38.15;36.66;39.22;;
71030;Laerm;63723;51.436;5.976;2022-10-26T00:15:40;38.18;36.84;39.25;;
71030;Laerm;63723;51.436;5.976;2022-10-26T00:15:51;38.45;37.07;39.71;;
71030;Laerm;63723;51.436;5.976;2022-10-26T00:16:06;38.52;37.08;39.92;;
71030;Laerm;63723;51.436;5.976;2022-10-26T00:16:21;38.42;36.97;39.59;;
71030;Laerm;63723;51.436;5.976;2022-10-26T00:16:31;38.29;37.04;39.43;;
71030;Laerm;63723;51.436;5.976;2022-10-26T00:16:42;38.27;36.96;39.40;;
71030;Laerm;63723;51.436;5.976;2022-10-26T00:16:52;38.19;36.78;39.36;;
71030;Laerm;63723;51.436;5.976;2022-10-26T00:17:02;38.14;36.73;39.33;;
71030;Laerm;63723;51.436;5.976;2022-10-26T00:17:13;38.03;36.36;39.30;;
71030;Laerm;63723;51.436;5.976;2022-10-26T00:17:23;38.06;36.68;39.28;;
71030;Laerm;63723;51.436;5.976;2022-10-26T00:17:33;38.04;36.82;39.08;;
71030;Laerm;63723;51.436;5.976;2022-10-26T00:17:44;38.00;36.75;39.37;;
71030;Laerm;63723;51.436;5.976;2022-10-26T00:17:54;37.98;36.47;39.45;;
71030;Laerm;63723;51.436;5.976;2022-10-26T00:18:04;38.01;35.87;39.05;;
71030;Laerm;63723;51.436;5.976;2022-10-26T00:18:15;37.96;36.58;39.32;;
71030;Laerm;63723;51.436;5.976;2022-10-26T00:18:25;38.00;36.49;39.52;;
71030;Laerm;63723;51.436;5.976;2022-10-26T00:18:35;38.05;36.50;39.09;;
71030;Laerm;63723;51.436;5.976;2022-10-26T00:18:46;38.14;36.89;39.42;;
71030;Laerm;63723;51.436;5.976;2022-10-26T00:18:56;38.14;36.85;39.76;;
71030;Laerm;63723;51.436;5.976;2022-10-26T00:19:06;38.13;37.09;39.44;;
71030;Laerm;63723;51.436;5.976;2022-10-26T00:19:16;38.06;36.85;39.03;;
71030;Laerm;63723;51.436;5.976;2022-10-26T00:19:27;38.08;36.69;40.18;;
71030;Laerm;63723;51.436;5.976;2022-10-26T00:19:37;37.88;36.77;38.87;;
71030;Laerm;63723;51.436;5.976;2022-10-26T00:19:47;37.79;36.44;39.15;;
71030;Laerm;63723;51.436;5.976;2022-10-26T00:19:57;37.94;36.63;40.64;;
71030;Laerm;63723;51.436;5.976;2022-10-26T00:20:09;37.98;36.80;40.18;;
71030;Laerm;63723;51.436;5.976;2022-10-26T00:20:20;37.77;36.34;39.12;;
71030;Laerm;63723;51.436;5.976;2022-10-26T00:20:31;37.86;36.57;39.31;;
71030;Laerm;63723;51.436;5.976;2022-10-26T00:20:42;38.15;36.50;41.75;;
71030;Laerm;63723;51.436;5.976;2022-10-26T00:20:52;37.82;36.76;39.12;;
71030;Laerm;63723;51.436;5.976;2022-10-26T00:21:02;37.94;36.57;39.09;;
71030;Laerm;63723;51.436;5.976;2022-10-26T00:21:13;38.09;36.65;39.45;;
71030;Laerm;63723;51.436;5.976;2022-10-26T00:21:23;38.18;36.82;39.46;;
71030;Laerm;63723;51.436;5.976;2022-10-26T00:21:34;38.25;36.75;40.38;;
71030;Laerm;63723;51.436;5.976;2022-10-26T00:21:44;38.38;37.06;40.07;;
71030;Laerm;63723;51.436;5.976;2022-10-26T00:21:56;38.42;36.95;45.27;;
71030;Laerm;63723;51.436;5.976;2022-10-26T00:22:07;38.90;37.43;41.56;;
71030;Laerm;63723;51.436;5.976;2022-10-26T00:22:17;38.25;36.78;39.92;;
71030;Laerm;63723;51.436;5.976;2022-10-26T00:22:27;38.12;36.49;39.25;;
71030;Laerm;63723;51.436;5.976;2022-10-26T00:22:37;38.12;37.04;39.52;;
71030;Laerm;63723;51.436;5.976;2022-10-26T00:22:48;37.87;36.47;39.33;;
71030;Laerm;63723;51.436;5.976;2022-10-26T00:22:58;37.84;36.79;38.97;;
71030;Laerm;63723;51.436;5.976;2022-10-26T00:23:08;37.76;36.58;39.02;;
71030;Laerm;63723;51.436;5.976;2022-10-26T00:23:18;37.72;36.12;38.96;;
71030;Laerm;63723;51.436;5.976;2022-10-26T00:23:29;37.84;36.60;39.13;;
71030;Laerm;63723;51.436;5.976;2022-10-26T00:23:40;37.80;36.72;38.71;;
71030;Laerm;63723;51.436;5.976;2022-10-26T00:23:50;37.92;36.32;39.18;;
71030;Laerm;63723;51.436;5.976;2022-10-26T00:24:01;38.06;36.90;39.39;;
71030;Laerm;63723;51.436;5.976;2022-10-26T00:24:11;37.92;36.32;39.72;;
71030;Laerm;63723;51.436;5.976;2022-10-26T00:24:21;37.87;36.51;39.09;;
71030;Laerm;63723;51.436;5.976;2022-10-26T00:24:31;37.87;36.68;39.02;;
71030;Laerm;63723;51.436;5.976;2022-10-26T00:24:42;37.85;36.53;39.02;;
71030;Laerm;63723;51.436;5.976;2022-10-26T00:24:52;38.04;36.86;39.40;;
71030;Laerm;63723;51.436;5.976;2022-10-26T00:25:02;37.92;36.58;39.21;;
71030;Laerm;63723;51.436;5.976;2022-10-26T00:25:13;37.93;36.72;39.22;;
71030;Laerm;63723;51.436;5.976;2022-10-26T00:25:23;38.30;36.86;46.33;;
71030;Laerm;63723;51.436;5.976;2022-10-26T00:25:33;38.08;36.73;39.57;;
71030;Laerm;63723;51.436;5.976;2022-10-26T00:25:43;38.05;36.61;39.59;;
71030;Laerm;63723;51.436;5.976;2022-10-26T00:25:54;37.92;36.77;39.32;;
71030;Laerm;63723;51.436;5.976;2022-10-26T00:26:05;37.80;36.28;38.92;;
71030;Laerm;63723;51.436;5.976;2022-10-26T00:26:15;37.86;36.51;39.04;;
71030;Laerm;63723;51.436;5.976;2022-10-26T00:26:26;37.78;36.43;39.45;;
71030;Laerm;63723;51.436;5.976;2022-10-26T00:26:37;37.77;36.53;39.13;;
71030;Laerm;63723;51.436;5.976;2022-10-26T00:26:47;37.80;36.42;38.93;;
71030;Laerm;63723;51.436;5.976;2022-10-26T00:26:57;37.83;36.67;39.05;;
71030;Laerm;63723;51.436;5.976;2022-10-26T00:27:07;37.80;36.71;38.79;;
71030;Laerm;63723;51.436;5.976;2022-10-26T00:27:18;37.81;36.26;39.00;;
71030;Laerm;63723;51.436;5.976;2022-10-26T00:27:28;37.85;36.55;38.97;;
71030;Laerm;63723;51.436;5.976;2022-10-26T00:27:38;37.88;36.63;38.97;;
71030;Laerm;63723;51.436;5.976;2022-10-26T00:27:48;37.83;36.64;38.82;;
71030;Laerm;63723;51.436;5.976;2022-10-26T00:27:59;37.85;36.69;39.05;;
71030;Laerm;63723;51.436;5.976;2022-10-26T00:28:09;37.87;36.72;39.17;;
71030;Laerm;63723;51.436;5.976;2022-10-26T00:28:19;37.82;36.44;39.16;;
71030;Laerm;63723;51.436;5.976;2022-10-26T00:28:30;37.77;36.47;39.10;;
71030;Laerm;63723;51.436;5.976;2022-10-26T00:28:40;37.83;36.63;39.29;;
71030;Laerm;63723;51.436;5.976;2022-10-26T00:28:53;37.88;36.70;38.90;;
71030;Laerm;63723;51.436;5.976;2022-10-26T00:29:04;37.86;36.62;39.48;;
71030;Laerm;63723;51.436;5.976;2022-10-26T00:29:14;37.90;36.74;39.01;;
71030;Laerm;63723;51.436;5.976;2022-10-26T00:29:26;37.88;36.77;38.96;;
71030;Laerm;63723;51.436;5.976;2022-10-26T00:29:36;37.86;36.71;39.08;;
71030;Laerm;63723;51.436;5.976;2022-10-26T00:29:46;37.82;36.30;38.91;;
71030;Laerm;63723;51.436;5.976;2022-10-26T00:29:56;37.82;36.24;39.08;;
71030;Laerm;63723;51.436;5.976;2022-10-26T00:30:07;37.78;36.40;39.06;;
71030;Laerm;63723;51.436;5.976;2022-10-26T00:30:17;37.80;36.40;38.94;;
71030;Laerm;63723;51.436;5.976;2022-10-26T00:30:27;37.90;36.49;38.97;;
71030;Laerm;63723;51.436;5.976;2022-10-26T00:30:38;37.83;36.62;39.17;;
71030;Laerm;63723;51.436;5.976;2022-10-26T00:30:48;37.78;36.17;38.81;;
71030;Laerm;63723;51.436;5.976;2022-10-26T00:30:59;37.88;36.54;39.05;;
71030;Laerm;63723;51.436;5.976;2022-10-26T00:31:14;37.82;36.55;39.53;;
71030;Laerm;63723;51.436;5.976;2022-10-26T00:31:24;37.93;36.69;47.13;;
71030;Laerm;63723;51.436;5.976;2022-10-26T00:31:34;37.82;36.35;39.09;;
71030;Laerm;63723;51.436;5.976;2022-10-26T00:31:45;37.82;36.60;39.07;;
71030;Laerm;63723;51.436;5.976;2022-10-26T00:31:55;37.81;36.70;39.02;;
71030;Laerm;63723;51.436;5.976;2022-10-26T00:32:05;42.28;36.64;52.48;;
71030;Laerm;63723;51.436;5.976;2022-10-26T00:32:15;37.94;36.47;39.12;;
71030;Laerm;63723;51.436;5.976;2022-10-26T00:32:26;37.88;36.58;39.09;;
71030;Laerm;63723;51.436;5.976;2022-10-26T00:32:37;38.03;36.57;44.09;;
71030;Laerm;63723;51.436;5.976;2022-10-26T00:32:47;37.99;36.78;39.51;;
71030;Laerm;63723;51.436;5.976;2022-10-26T00:32:57;38.02;36.43;39.64;;
71030;Laerm;63723;51.436;5.976;2022-10-26T00:33:09;37.97;36.55;39.35;;
71030;Laerm;63723;51.436;5.976;2022-10-26T00:33:21;38.06;36.68;39.46;;
71030;Laerm;63723;51.436;5.976;2022-10-26T00:33:31;37.94;36.44;39.23;;
71030;Laerm;63723;51.436;5.976;2022-10-26T00:33:42;37.96;36.91;39.30;;
71030;Laerm;63723;51.436;5.976;2022-10-26T00:33:52;37.91;36.85;39.18;;
71030;Laerm;63723;51.436;5.976;2022-10-26T00:34:03;37.90;36.46;39.11;;
71030;Laerm;63723;51.436;5.976;2022-10-26T00:34:14;38.25;36.86;39.50;;
71030;Laerm;63723;51.436;5.976;2022-10-26T00:34:24;38.48;36.86;45.73;;
71030;Laerm;63723;51.436;5.976;2022-10-26T00:34:34;38.60;37.16;40.41;;
71030;Laerm;63723;51.436;5.976;2022-10-26T00:34:45;38.62;36.43;40.64;;
71030;Laerm;63723;51.436;5.976;2022-10-26T00:34:55;38.60;36.84;40.75;;
71030;Laerm;63723;51.436;5.976;2022-10-26T00:35:05;38.55;37.26;40.70;;
71030;Laerm;63723;51.436;5.976;2022-10-26T00:35:15;38.50;37.00;40.12;;
71030;Laerm;63723;51.436;5.976;2022-10-26T00:35:26;39.60;37.72;42.39;;
71030;Laerm;63723;51.436;5.976;2022-10-26T00:35:36;40.14;37.98;43.27;;
71030;Laerm;63723;51.436;5.976;2022-10-26T00:35:47;38.93;37.35;40.49;;
71030;Laerm;63723;51.436;5.976;2022-10-26T00:35:58;38.32;37.04;39.64;;
71030;Laerm;63723;51.436;5.976;2022-10-26T00:36:08;38.21;36.87;39.83;;
71030;Laerm;63723;51.436;5.976;2022-10-26T00:36:19;38.27;36.81;39.94;;
71030;Laerm;63723;51.436;5.976;2022-10-26T00:36:30;38.08;36.84;39.56;;
71030;Laerm;63723;51.436;5.976;2022-10-26T00:36:40;38.06;36.77;39.83;;
71030;Laerm;63723;51.436;5.976;2022-10-26T00:36:51;38.06;36.55;39.14;;
71030;Laerm;63723;51.436;5.976;2022-10-26T00:37:01;37.97;36.74;40.98;;
71030;Laerm;63723;51.436;5.976;2022-10-26T00:37:11;37.92;36.02;39.38;;
71030;Laerm;63723;51.436;5.976;2022-10-26T00:37:22;37.91;36.34;39.10;;
71030;Laerm;63723;51.436;5.976;2022-10-26T00:37:32;37.86;36.72;38.98;;
71030;Laerm;63723;51.436;5.976;2022-10-26T00:37:42;37.99;36.65;39.30;;
71030;Laerm;63723;51.436;5.976;2022-10-26T00:37:53;37.96;36.76;39.06;;
71030;Laerm;63723;51.436;5.976;2022-10-26T00:38:03;38.13;36.50;40.58;;
71030;Laerm;63723;51.436;5.976;2022-10-26T00:38:14;38.06;36.88;39.79;;
71030;Laerm;63723;51.436;5.976;2022-10-26T00:38:24;37.97;36.77;39.55;;
71030;Laerm;63723;51.436;5.976;2022-10-26T00:38:35;38.02;36.71;40.27;;
71030;Laerm;63723;51.436;5.976;2022-10-26T00:38:51;38.00;36.76;39.16;;
71030;Laerm;63723;51.436;5.976;2022-10-26T00:39:02;37.99;36.93;39.26;;
71030;Laerm;63723;51.436;5.976;2022-10-26T00:39:12;37.96;36.59;39.15;;
71030;Laerm;63723;51.436;5.976;2022-10-26T00:39:23;37.94;36.64;39.19;;
71030;Laerm;63723;51.436;5.976;2022-10-26T00:39:33;38.05;36.88;43.73;;
71030;Laerm;63723;51.436;5.976;2022-10-26T00:39:43;37.97;36.81;39.31;;
71030;Laerm;63723;51.436;5.976;2022-10-26T00:39:54;38.04;36.71;39.19;;
71030;Laerm;63723;51.436;5.976;2022-10-26T00:40:04;37.94;36.60;39.48;;
71030;Laerm;63723;51.436;5.976;2022-10-26T00:40:14;38.00;36.51;39.12;;
71030;Laerm;63723;51.436;5.976;2022-10-26T00:40:28;37.97;36.87;39.32;;
71030;Laerm;63723;51.436;5.976;2022-10-26T00:40:38;38.08;36.74;41.58;;
71030;Laerm;63723;51.436;5.976;2022-10-26T00:40:49;37.99;36.85;39.16;;
71030;Laerm;63723;51.436;5.976;2022-10-26T00:40:59;38.01;36.54;39.14;;
71030;Laerm;63723;51.436;5.976;2022-10-26T00:41:27;38.12;36.62;40.01;;
71030;Laerm;63723;51.436;5.976;2022-10-26T00:41:38;38.12;36.56;39.78;;
71030;Laerm;63723;51.436;5.976;2022-10-26T00:41:48;38.05;36.71;39.27;;
71030;Laerm;63723;51.436;5.976;2022-10-26T00:41:59;38.11;36.73;39.30;;
71030;Laerm;63723;51.436;5.976;2022-10-26T00:42:13;38.12;36.74;39.37;;
71030;Laerm;63723;51.436;5.976;2022-10-26T00:42:25;38.25;36.95;45.24;;
71030;Laerm;63723;51.436;5.976;2022-10-26T00:42:36;38.24;37.14;39.58;;
71030;Laerm;63723;51.436;5.976;2022-10-26T00:42:46;38.25;36.54;46.19;;
71030;Laerm;63723;51.436;5.976;2022-10-26T00:42:56;38.24;36.81;39.39;;
71030;Laerm;63723;51.436;5.976;2022-10-26T00:43:32;38.60;37.33;40.32;;
71030;Laerm;63723;51.436;5.976;2022-10-26T00:43:42;38.82;37.08;41.69;;
71030;Laerm;63723;51.436;5.976;2022-10-26T00:43:53;38.64;37.53;40.16;;
71030;Laerm;63723;51.436;5.976;2022-10-26T00:44:59;38.23;36.73;41.67;;
71030;Laerm;63723;51.436;5.976;2022-10-26T00:45:30;38.10;36.87;39.59;;
71030;Laerm;63723;51.436;5.976;2022-10-26T00:45:40;38.21;37.11;40.06;;
71030;Laerm;63723;51.436;5.976;2022-10-26T00:45:52;38.43;36.94;39.57;;
71030;Laerm;63723;51.436;5.976;2022-10-26T00:46:05;38.39;36.85;39.69;;
71030;Laerm;63723;51.436;5.976;2022-10-26T00:46:20;38.35;36.95;39.90;;
71030;Laerm;63723;51.436;5.976;2022-10-26T00:46:32;38.33;37.01;39.67;;
71030;Laerm;63723;51.436;5.976;2022-10-26T00:46:44;38.14;36.81;40.38;;
71030;Laerm;63723;51.436;5.976;2022-10-26T00:46:54;38.08;36.55;39.35;;
71030;Laerm;63723;51.436;5.976;2022-10-26T00:47:04;38.10;36.51;39.37;;
71030;Laerm;63723;51.436;5.976;2022-10-26T00:47:28;38.09;36.47;39.24;;
71030;Laerm;63723;51.436;5.976;2022-10-26T00:47:43;38.07;36.76;41.12;;
71030;Laerm;63723;51.436;5.976;2022-10-26T00:47:58;37.99;36.80;39.45;;
71030;Laerm;63723;51.436;5.976;2022-10-26T00:48:18;38.00;36.52;39.70;;
71030;Laerm;63723;51.436;5.976;2022-10-26T00:48:34;38.02;36.22;39.61;;
71030;Laerm;63723;51.436;5.976;2022-10-26T00:48:46;38.04;36.49;39.50;;
71030;Laerm;63723;51.436;5.976;2022-10-26T00:49:00;38.13;36.37;46.08;;
71030;Laerm;63723;51.436;5.976;2022-10-26T00:49:12;38.06;36.85;39.37;;
71030;Laerm;63723;51.436;5.976;2022-10-26T00:49:23;38.09;36.85;39.56;;
71030;Laerm;63723;51.436;5.976;2022-10-26T00:49:34;38.14;36.66;39.31;;
71030;Laerm;63723;51.436;5.976;2022-10-26T00:49:44;38.10;36.78;39.30;;
71030;Laerm;63723;51.436;5.976;2022-10-26T00:49:56;38.02;36.80;39.39;;
71030;Laerm;63723;51.436;5.976;2022-10-26T00:50:10;38.49;36.59;40.32;;
71030;Laerm;63723;51.436;5.976;2022-10-26T00:50:24;39.39;36.96;43.75;;
71030;Laerm;63723;51.436;5.976;2022-10-26T00:50:36;38.37;36.84;39.93;;
71030;Laerm;63723;51.436;5.976;2022-10-26T00:50:48;38.01;36.84;39.03;;
71030;Laerm;63723;51.436;5.976;2022-10-26T00:50:58;38.05;36.48;39.31;;
71030;Laerm;63723;51.436;5.976;2022-10-26T00:51:13;38.07;36.74;39.23;;
71030;Laerm;63723;51.436;5.976;2022-10-26T00:51:32;38.09;36.69;39.56;;
71030;Laerm;63723;51.436;5.976;2022-10-26T00:51:45;38.18;36.71;39.51;;
71030;Laerm;63723;51.436;5.976;2022-10-26T00:51:57;38.27;36.83;41.24;;
71030;Laerm;63723;51.436;5.976;2022-10-26T00:52:07;38.36;37.03;39.57;;
71030;Laerm;63723;51.436;5.976;2022-10-26T00:52:18;38.50;36.92;39.92;;
71030;Laerm;63723;51.436;5.976;2022-10-26T00:52:32;38.66;36.94;40.05;;
71030;Laerm;63723;51.436;5.976;2022-10-26T00:52:42;38.40;36.98;39.62;;
71030;Laerm;63723;51.436;5.976;2022-10-26T00:52:53;38.61;36.73;39.80;;
71030;Laerm;63723;51.436;5.976;2022-10-26T00:53:04;38.52;37.25;39.71;;
71030;Laerm;63723;51.436;5.976;2022-10-26T00:53:15;38.40;37.14;39.58;;
71030;Laerm;63723;51.436;5.976;2022-10-26T00:53:26;38.47;37.23;39.94;;
71030;Laerm;63723;51.436;5.976;2022-10-26T00:53:37;38.49;37.01;39.91;;
71030;Laerm;63723;51.436;5.976;2022-10-26T00:53:48;38.47;37.10;39.72;;
71030;Laerm;63723;51.436;5.976;2022-10-26T00:53:59;38.49;37.31;40.00;;
71030;Laerm;63723;51.436;5.976;2022-10-26T00:54:12;38.64;37.24;40.29;;
71030;Laerm;63723;51.436;5.976;2022-10-26T00:54:24;38.82;37.55;40.81;;
71030;Laerm;63723;51.436;5.976;2022-10-26T00:54:34;39.48;37.81;41.90;;
71030;Laerm;63723;51.436;5.976;2022-10-26T00:54:45;39.34;37.45;41.64;;
71030;Laerm;63723;51.436;5.976;2022-10-26T00:54:55;39.77;37.53;43.64;;
71030;Laerm;63723;51.436;5.976;2022-10-26T00:55:05;40.14;38.13;43.50;;
71030;Laerm;63723;51.436;5.976;2022-10-26T00:55:17;38.91;37.29;40.55;;
71030;Laerm;63723;51.436;5.976;2022-10-26T00:55:31;38.59;37.37;39.88;;
71030;Laerm;63723;51.436;5.976;2022-10-26T00:55:46;38.60;37.38;39.74;;
71030;Laerm;63723;51.436;5.976;2022-10-26T00:55:57;38.48;36.90;39.71;;
71030;Laerm;63723;51.436;5.976;2022-10-26T00:56:08;38.36;36.94;39.41;;
71030;Laerm;63723;51.436;5.976;2022-10-26T00:56:18;38.27;36.88;39.34;;
71030;Laerm;63723;51.436;5.976;2022-10-26T00:56:29;38.34;37.09;39.67;;
71030;Laerm;63723;51.436;5.976;2022-10-26T00:56:40;38.32;36.95;39.50;;
71030;Laerm;63723;51.436;5.976;2022-10-26T00:56:51;38.29;36.82;39.52;;
71030;Laerm;63723;51.436;5.976;2022-10-26T00:57:03;38.29;37.07;39.44;;
71030;Laerm;63723;51.436;5.976;2022-10-26T00:57:13;38.26;37.02;39.49;;
71030;Laerm;63723;51.436;5.976;2022-10-26T00:57:24;38.27;36.91;39.39;;
71030;Laerm;63723;51.436;5.976;2022-10-26T00:57:35;38.58;36.82;41.07;;
71030;Laerm;63723;51.436;5.976;2022-10-26T00:57:47;38.62;37.25;40.05;;
71030;Laerm;63723;51.436;5.976;2022-10-26T00:57:58;38.58;37.38;40.16;;
71030;Laerm;63723;51.436;5.976;2022-10-26T00:58:10;38.78;36.80;40.41;;
71030;Laerm;63723;51.436;5.976;2022-10-26T00:58:20;39.10;37.15;40.96;;
71030;Laerm;63723;51.436;5.976;2022-10-26T00:58:31;39.13;37.07;40.65;;
71030;Laerm;63723;51.436;5.976;2022-10-26T00:58:43;38.33;37.21;39.47;;
71030;Laerm;63723;51.436;5.976;2022-10-26T00:58:54;38.36;36.87;39.64;;
71030;Laerm;63723;51.436;5.976;2022-10-26T00:59:06;38.34;37.00;39.63;;
71030;Laerm;63723;51.436;5.976;2022-10-26T00:59:20;39.03;36.88;49.18;;
71030;Laerm;63723;51.436;5.976;2022-10-26T00:59:32;38.37;37.03;43.44;;
71030;Laerm;63723;51.436;5.976;2022-10-26T00:59:42;38.42;37.17;39.68;;
71030;Laerm;63723;51.436;5.976;2022-10-26T00:59:53;39.00;37.29;41.61;;
71030;Laerm;63723;51.436;5.976;2022-10-26T01:00:05;39.30;37.63;41.94;;
71030;Laerm;63723;51.436;5.976;2022-10-26T01:00:16;44.15;37.68;54.18;;
71030;Laerm;63723;51.436;5.976;2022-10-26T01:00:27;38.53;36.94;39.66;;
71030;Laerm;63723;51.436;5.976;2022-10-26T01:00:38;38.49;37.35;39.90;;
71030;Laerm;63723;51.436;5.976;2022-10-26T01:00:49;38.43;37.06;39.89;;
71030;Laerm;63723;51.436;5.976;2022-10-26T01:01:00;38.41;36.79;40.59;;
71030;Laerm;63723;51.436;5.976;2022-10-26T01:01:11;38.14;36.85;39.38;;
71030;Laerm;63723;51.436;5.976;2022-10-26T01:01:21;38.11;36.92;39.53;;
71030;Laerm;63723;51.436;5.976;2022-10-26T01:01:33;38.05;36.73;39.36;;
71030;Laerm;63723;51.436;5.976;2022-10-26T01:01:44;37.98;36.68;39.12;;
71030;Laerm;63723;51.436;5.976;2022-10-26T01:01:55;38.00;36.60;39.29;;
71030;Laerm;63723;51.436;5.976;2022-10-26T01:02:06;38.00;36.88;39.05;;
71030;Laerm;63723;51.436;5.976;2022-10-26T01:02:16;38.09;36.70;39.31;;
71030;Laerm;63723;51.436;5.976;2022-10-26T01:02:26;38.06;36.93;38.99;;
71030;Laerm;63723;51.436;5.976;2022-10-26T01:02:37;38.05;36.91;39.37;;
71030;Laerm;63723;51.436;5.976;2022-10-26T01:02:47;38.09;36.88;39.36;;
71030;Laerm;63723;51.436;5.976;2022-10-26T01:03:00;38.01;36.77;39.16;;
71030;Laerm;63723;51.436;5.976;2022-10-26T01:03:13;38.02;36.71;39.37;;
71030;Laerm;63723;51.436;5.976;2022-10-26T01:03:24;38.04;36.77;39.32;;
71030;Laerm;63723;51.436;5.976;2022-10-26T01:03:36;38.11;36.88;39.09;;